createdAt,value
2023-04-09T00:00:16.758Z,4.59
2023-04-09T00:01:19.132Z,4.59
2023-04-09T00:02:21.482Z,4.56
2023-04-09T00:03:23.785Z,4.62
2023-04-09T00:04:26.094Z,4.62
2023-04-09T00:05:28.638Z,4.67
2023-04-09T00:06:31.363Z,4.63
2023-04-09T00:07:33.578Z,4.62
2023-04-09T00:08:35.956Z,4.61
2023-04-09T00:09:38.151Z,4.57
2023-04-09T00:10:40.446Z,4.57
2023-04-09T00:11:42.965Z,4.56
2023-04-09T00:12:46.773Z,4.58
2023-04-09T00:13:48.967Z,4.57
2023-04-09T00:14:51.762Z,4.57
2023-04-09T00:15:53.926Z,4.66
2023-04-09T00:16:56.318Z,4.61
2023-04-09T00:17:58.959Z,4.62
2023-04-09T00:19:01.196Z,4.58
2023-04-09T00:20:05.967Z,4.60
2023-04-09T00:21:08.708Z,4.57
2023-04-09T00:22:11.254Z,4.48
2023-04-09T00:23:14.487Z,4.42
2023-04-09T00:24:16.643Z,4.46
2023-04-09T00:25:19.931Z,4.47
2023-04-09T00:26:22.436Z,4.46
2023-04-09T00:27:24.819Z,4.42
2023-04-09T00:28:27.117Z,4.38
2023-04-09T00:29:29.299Z,4.45
2023-04-09T00:30:32.655Z,4.40
2023-04-09T00:31:35.005Z,4.48
2023-04-09T00:32:41.580Z,4.52
2023-04-09T00:33:44.094Z,4.47
2023-04-09T00:34:46.612Z,4.48
2023-04-09T00:35:48.843Z,4.36
2023-04-09T00:36:51.243Z,4.33
2023-04-09T00:37:53.589Z,4.29
2023-04-09T00:38:56.106Z,4.19
2023-04-09T00:39:58.500Z,4.14
2023-04-09T00:41:01.077Z,4.17
2023-04-09T00:42:03.618Z,4.15
2023-04-09T00:43:06.941Z,4.18
2023-04-09T00:44:09.144Z,3.84
2023-04-09T00:45:11.556Z,3.59
2023-04-09T00:46:14.375Z,3.65
2023-04-09T00:47:17.742Z,3.78
2023-04-09T00:48:20.860Z,3.89
2023-04-09T00:49:24.779Z,3.85
2023-04-09T00:50:27.177Z,3.74
2023-04-09T00:51:29.600Z,3.72
2023-04-09T00:52:33.325Z,3.69
2023-04-09T00:53:35.595Z,3.90
2023-04-09T00:54:37.879Z,3.79
2023-04-09T00:55:41.710Z,3.90
2023-04-09T00:56:44.137Z,3.71
2023-04-09T00:57:47.104Z,3.82
2023-04-09T00:58:49.906Z,3.94
2023-04-09T00:59:52.177Z,4.03
2023-04-09T01:00:55.509Z,4.14
2023-04-09T01:01:58.168Z,4.14
2023-04-09T01:03:01.068Z,4.14
2023-04-09T01:04:03.652Z,4.05
2023-04-09T01:05:06.514Z,4.10
2023-04-09T01:06:33.121Z,4.12
2023-04-09T01:07:51.376Z,4.09
2023-04-09T01:08:56.244Z,4.10
2023-04-09T01:10:53.801Z,4.02
2023-04-09T01:11:56.825Z,3.95
2023-04-09T01:12:59.373Z,3.97
2023-04-09T01:14:08.762Z,3.97
2023-04-09T01:15:18.361Z,4.01
2023-04-09T01:16:23.311Z,3.96
2023-04-09T01:17:46.795Z,4.10
2023-04-09T01:19:00.006Z,4.20
2023-04-09T01:20:07.488Z,4.21
2023-04-09T01:21:12.024Z,4.24
2023-04-09T01:22:40.438Z,4.15
2023-04-09T01:23:47.998Z,4.11
2023-04-09T01:25:45.478Z,4.11
2023-04-09T01:26:57.284Z,4.12
2023-04-09T01:28:21.058Z,4.12
2023-04-09T01:29:26.684Z,4.17
2023-04-09T01:30:29.960Z,4.15
2023-04-09T01:31:37.482Z,4.16
2023-04-09T01:32:41.593Z,4.15
2023-04-09T01:33:44.963Z,4.11
2023-04-09T01:34:48.659Z,4.09
2023-04-09T01:35:52.800Z,4.11
2023-04-09T01:36:59.480Z,4.13
2023-04-09T01:38:03.986Z,4.15
2023-04-09T01:39:06.820Z,4.06
2023-04-09T01:40:09.651Z,4.02
2023-04-09T01:41:18.144Z,3.98
2023-04-09T01:42:21.134Z,3.96
2023-04-09T01:43:24.564Z,3.91
2023-04-09T01:44:29.043Z,3.87
2023-04-09T01:45:31.238Z,3.89
2023-04-09T01:46:35.335Z,3.83
2023-04-09T01:47:38.721Z,3.82
2023-04-09T01:48:41.618Z,3.82
2023-04-09T01:49:44.828Z,3.75
2023-04-09T01:50:48.068Z,3.78
2023-04-09T01:51:50.885Z,3.72
2023-04-09T01:52:53.426Z,3.75
2023-04-09T01:53:56.206Z,3.72
2023-04-09T01:54:58.780Z,3.71
2023-04-09T01:56:01.637Z,3.75
2023-04-09T01:57:04.316Z,3.77
2023-04-09T01:58:06.740Z,3.75
2023-04-09T01:59:09.023Z,3.62
2023-04-09T02:00:12.306Z,3.59
2023-04-09T02:01:32.175Z,3.60
2023-04-09T02:02:41.770Z,3.63
2023-04-09T02:03:53.726Z,3.59
2023-04-09T02:04:58.867Z,3.59
2023-04-09T02:06:13.582Z,3.61
2023-04-09T02:07:26.364Z,3.55
2023-04-09T02:08:30.758Z,3.53
2023-04-09T02:09:37.103Z,3.56
2023-04-09T02:10:40.878Z,3.59
2023-04-09T02:11:43.795Z,3.61
2023-04-09T02:12:52.545Z,3.53
2023-04-09T02:13:56.662Z,3.54
2023-04-09T02:15:02.362Z,3.47
2023-04-09T02:16:06.051Z,3.35
2023-04-09T02:17:08.508Z,3.29
2023-04-09T02:18:28.537Z,3.24
2023-04-09T02:19:41.536Z,3.23
2023-04-09T02:20:43.887Z,3.31
2023-04-09T02:21:46.459Z,3.36
2023-04-09T02:22:49.059Z,3.35
2023-04-09T02:23:51.304Z,3.35
2023-04-09T02:24:54.024Z,3.39
2023-04-09T02:25:56.570Z,3.41
2023-04-09T02:26:58.762Z,3.55
2023-04-09T02:28:01.129Z,3.64
2023-04-09T02:29:03.564Z,3.70
2023-04-09T02:30:06.607Z,3.68
2023-04-09T02:31:09.099Z,3.68
2023-04-09T02:32:11.352Z,3.63
2023-04-09T02:33:13.829Z,3.59
2023-04-09T02:34:16.085Z,3.56
2023-04-09T02:35:18.509Z,3.58
2023-04-09T02:36:20.809Z,3.51
2023-04-09T02:37:23.235Z,3.42
2023-04-09T02:38:25.416Z,3.26
2023-04-09T02:39:27.824Z,3.12
2023-04-09T02:40:30.326Z,3.00
2023-04-09T02:41:32.578Z,2.97
2023-04-09T02:42:35.365Z,2.77
2023-04-09T02:43:37.688Z,2.82
2023-04-09T02:44:39.952Z,2.69
2023-04-09T02:45:42.592Z,2.62
2023-04-09T02:46:46.387Z,2.59
2023-04-09T02:47:49.141Z,2.58
2023-04-09T02:48:51.700Z,2.59
2023-04-09T02:49:54.328Z,2.56
2023-04-09T02:50:57.351Z,2.54
2023-04-09T02:51:59.589Z,2.49
2023-04-09T02:53:01.853Z,2.49
2023-04-09T02:54:04.658Z,2.44
2023-04-09T02:55:08.507Z,2.34
2023-04-09T02:56:10.785Z,2.38
2023-04-09T02:57:13.001Z,2.43
2023-04-09T02:58:15.706Z,2.37
2023-04-09T02:59:18.074Z,2.39
2023-04-09T03:00:20.882Z,2.37
2023-04-09T03:01:23.175Z,2.44
2023-04-09T03:02:25.553Z,2.41
2023-04-09T03:03:28.198Z,2.32
2023-04-09T03:04:30.617Z,2.22
2023-04-09T03:05:33.035Z,2.22
2023-04-09T03:06:40.824Z,2.17
2023-04-09T03:07:43.042Z,2.22
2023-04-09T03:08:45.622Z,2.26
2023-04-09T03:09:47.833Z,2.35
2023-04-09T03:10:50.414Z,2.29
2023-04-09T03:11:52.647Z,2.36
2023-04-09T03:12:55.282Z,2.39
2023-04-09T03:13:58.749Z,2.37
2023-04-09T03:15:01.005Z,2.43
2023-04-09T03:16:04.981Z,2.37
2023-04-09T03:17:07.239Z,2.37
2023-04-09T03:18:09.626Z,2.36
2023-04-09T03:19:11.761Z,2.40
2023-04-09T03:20:14.324Z,2.42
2023-04-09T03:21:16.622Z,2.42
2023-04-09T03:22:23.315Z,2.44
2023-04-09T03:23:28.125Z,2.42
2023-04-09T03:24:32.231Z,2.39
2023-04-09T03:25:39.194Z,2.39
2023-04-09T03:26:47.811Z,2.42
2023-04-09T03:27:51.094Z,2.45
2023-04-09T03:29:02.212Z,2.48
2023-04-09T03:30:04.866Z,2.44
2023-04-09T03:31:17.224Z,2.42
2023-04-09T03:32:20.773Z,2.43
2023-04-09T03:33:24.133Z,2.46
2023-04-09T03:34:29.799Z,2.60
2023-04-09T03:35:33.318Z,2.56
2023-04-09T03:36:36.289Z,2.57
2023-04-09T03:37:43.399Z,2.59
2023-04-09T03:38:51.863Z,2.60
2023-04-09T03:40:14.436Z,2.61
2023-04-09T03:41:17.065Z,2.67
2023-04-09T03:42:19.275Z,2.78
2023-04-09T03:43:24.073Z,2.81
2023-04-09T03:44:28.462Z,2.92
2023-04-09T03:45:38.813Z,2.94
2023-04-09T03:46:56.465Z,2.89
2023-04-09T03:47:59.807Z,2.92
2023-04-09T03:49:02.294Z,3.00
2023-04-09T03:50:12.845Z,3.04
2023-04-09T03:51:23.020Z,3.13
2023-04-09T03:52:31.120Z,3.20
2023-04-09T03:53:38.049Z,3.32
2023-04-09T03:54:43.512Z,3.31
2023-04-09T03:55:51.432Z,3.20
2023-04-09T03:56:59.346Z,3.19
2023-04-09T03:58:01.549Z,3.04
2023-04-09T03:59:07.250Z,2.96
2023-04-09T04:00:22.478Z,2.97
2023-04-09T04:01:48.480Z,3.06
2023-04-09T04:02:52.174Z,3.00
2023-04-09T04:04:11.960Z,2.93
2023-04-09T04:05:18.900Z,2.79
2023-04-09T04:06:24.504Z,2.74
2023-04-09T04:07:38.135Z,2.60
2023-04-09T04:08:47.770Z,2.62
2023-04-09T04:09:51.661Z,2.60
2023-04-09T04:10:54.909Z,2.62
2023-04-09T04:11:58.887Z,2.59
2023-04-09T04:13:15.661Z,2.63
2023-04-09T04:14:23.805Z,2.60
2023-04-09T04:15:32.665Z,2.56
2023-04-09T04:16:35.153Z,2.59
2023-04-09T04:17:39.502Z,2.68
2023-04-09T04:18:53.171Z,2.65
2023-04-09T04:19:56.293Z,2.64
2023-04-09T04:20:59.433Z,2.64
2023-04-09T04:23:08.236Z,2.71
2023-04-09T04:24:14.362Z,2.73
2023-04-09T04:25:17.280Z,2.79
2023-04-09T04:26:20.850Z,2.83
2023-04-09T04:27:23.465Z,2.90
2023-04-09T04:28:26.317Z,3.01
2023-04-09T04:29:28.552Z,3.10
2023-04-09T04:30:34.115Z,3.19
2023-04-09T04:31:40.562Z,3.25
2023-04-09T04:32:43.064Z,3.36
2023-04-09T04:33:47.148Z,3.39
2023-04-09T04:34:50.813Z,3.35
2023-04-09T04:36:10.367Z,3.31
2023-04-09T04:37:17.265Z,3.24
2023-04-09T04:38:19.719Z,3.29
2023-04-09T04:39:21.925Z,3.30
2023-04-09T04:40:35.255Z,3.27
2023-04-09T04:41:37.832Z,3.22
2023-04-09T04:42:50.202Z,3.08
2023-04-09T04:43:52.485Z,2.96
2023-04-09T04:44:57.982Z,2.85
2023-04-09T04:46:13.040Z,2.77
2023-04-09T04:47:15.663Z,2.71
2023-04-09T04:48:17.921Z,2.64
2023-04-09T04:49:20.333Z,2.62
2023-04-09T04:50:23.539Z,2.59
2023-04-09T04:51:36.341Z,2.52
2023-04-09T04:52:44.298Z,2.51
2023-04-09T04:53:46.913Z,2.52
2023-04-09T04:54:50.365Z,2.50
2023-04-09T04:55:57.084Z,2.52
2023-04-09T04:57:02.057Z,2.58
2023-04-09T04:58:11.359Z,2.54
2023-04-09T04:59:19.867Z,2.49
2023-04-09T05:00:32.637Z,2.48
2023-04-09T05:01:37.971Z,2.51
2023-04-09T05:02:44.668Z,2.48
2023-04-09T05:03:59.411Z,2.43
2023-04-09T05:05:08.179Z,2.47
2023-04-09T05:06:15.938Z,2.52
2023-04-09T05:07:20.766Z,2.61
2023-04-09T05:08:27.167Z,2.54
2023-04-09T05:09:31.399Z,2.62
2023-04-09T05:10:43.100Z,2.62
2023-04-09T05:11:46.317Z,2.65
2023-04-09T05:12:54.276Z,2.61
2023-04-09T05:14:04.806Z,2.57
2023-04-09T05:15:08.077Z,2.54
2023-04-09T05:16:19.158Z,2.50
2023-04-09T05:17:27.047Z,2.49
2023-04-09T05:18:29.633Z,2.47
2023-04-09T05:19:31.905Z,2.45
2023-04-09T05:20:37.727Z,2.43
2023-04-09T05:21:44.118Z,2.45
2023-04-09T05:22:47.747Z,2.39
2023-04-09T05:23:50.766Z,2.36
2023-04-09T05:24:53.815Z,2.30
2023-04-09T05:25:56.465Z,2.21
2023-04-09T05:27:12.454Z,2.25
2023-04-09T05:28:19.464Z,2.30
2023-04-09T05:29:25.349Z,2.42
2023-04-09T05:30:27.700Z,2.45
2023-04-09T05:31:32.944Z,2.56
2023-04-09T05:32:40.413Z,2.59
2023-04-09T05:33:43.324Z,2.65
2023-04-09T05:34:52.635Z,2.61
2023-04-09T05:35:55.180Z,2.57
2023-04-09T05:36:57.452Z,2.56
2023-04-09T05:38:01.172Z,2.58
2023-04-09T05:39:03.519Z,2.68
2023-04-09T05:40:06.918Z,2.77
2023-04-09T05:41:09.211Z,2.88
2023-04-09T05:42:18.582Z,2.91
2023-04-09T05:43:47.260Z,2.99
2023-04-09T05:44:50.479Z,3.09
2023-04-09T05:45:55.967Z,3.11
2023-04-09T05:46:58.322Z,3.13
2023-04-09T05:48:06.985Z,3.23
2023-04-09T05:49:09.199Z,3.31
2023-04-09T05:50:12.819Z,3.36
2023-04-09T05:51:16.534Z,3.41
2023-04-09T05:52:19.794Z,3.43
2023-04-09T05:53:22.659Z,3.50
2023-04-09T05:54:26.049Z,3.57
2023-04-09T05:55:28.309Z,3.57
2023-04-09T05:56:34.934Z,3.68
2023-04-09T05:57:37.138Z,3.77
2023-04-09T05:58:40.173Z,3.71
2023-04-09T05:59:42.431Z,3.75
2023-04-09T06:00:44.916Z,3.76
2023-04-09T06:01:47.301Z,3.78
2023-04-09T06:02:50.037Z,3.82
2023-04-09T06:03:56.141Z,3.88
2023-04-09T06:05:00.247Z,3.96
2023-04-09T06:06:02.625Z,3.92
2023-04-09T06:07:04.822Z,3.96
2023-04-09T06:08:07.398Z,3.98
2023-04-09T06:09:09.806Z,3.99
2023-04-09T06:10:16.892Z,4.02
2023-04-09T06:11:19.534Z,4.05
2023-04-09T06:12:22.024Z,4.04
2023-04-09T06:13:24.642Z,4.04
2023-04-09T06:14:27.044Z,4.02
2023-04-09T06:15:29.281Z,4.05
2023-04-09T06:16:33.509Z,4.12
2023-04-09T06:17:35.868Z,4.12
2023-04-09T06:18:38.411Z,4.20
2023-04-09T06:19:40.634Z,4.27
2023-04-09T06:20:43.031Z,4.31
2023-04-09T06:21:45.325Z,4.32
2023-04-09T06:22:48.092Z,4.33
2023-04-09T06:23:50.795Z,4.40
2023-04-09T06:24:53.253Z,4.42
2023-04-09T06:25:55.873Z,4.46
2023-04-09T06:26:58.075Z,4.46
2023-04-09T06:28:00.291Z,4.45
2023-04-09T06:29:03.540Z,4.47
2023-04-09T06:30:06.478Z,4.58
2023-04-09T06:31:09.025Z,4.66
2023-04-09T06:32:11.441Z,4.68
2023-04-09T06:33:13.701Z,4.70
2023-04-09T06:34:16.177Z,4.77
2023-04-09T06:35:18.407Z,4.84
2023-04-09T06:36:21.306Z,4.88
2023-04-09T06:37:23.653Z,4.83
2023-04-09T06:38:25.950Z,4.88
2023-04-09T06:39:28.365Z,4.91
2023-04-09T06:40:30.822Z,4.94
2023-04-09T06:41:33.684Z,5.05
2023-04-09T06:42:39.976Z,5.23
2023-04-09T06:43:52.473Z,5.40
2023-04-09T06:44:54.933Z,5.48
2023-04-09T06:45:57.283Z,5.46
2023-04-09T06:46:59.522Z,5.50
2023-04-09T06:48:01.916Z,5.55
2023-04-09T06:49:04.485Z,5.79
2023-04-09T06:50:07.311Z,6.18
2023-04-09T06:51:09.669Z,6.37
2023-04-09T06:52:12.103Z,6.74
2023-04-09T06:53:15.473Z,7.24
2023-04-09T06:54:17.839Z,7.40
2023-04-09T06:55:20.340Z,7.78
2023-04-09T06:56:22.507Z,8.07
2023-04-09T06:57:24.699Z,8.22
2023-04-09T06:58:26.883Z,8.30
2023-04-09T06:59:29.252Z,8.40
2023-04-09T07:00:31.471Z,8.43
2023-04-09T07:01:35.583Z,8.61
2023-04-09T07:02:38.612Z,8.65
2023-04-09T07:03:41.233Z,8.92
2023-04-09T07:04:43.968Z,9.10
2023-04-09T07:05:46.413Z,9.35
2023-04-09T07:06:48.624Z,9.62
2023-04-09T07:07:51.191Z,9.65
2023-04-09T07:08:53.677Z,9.89
2023-04-09T07:09:56.370Z,10.14
2023-04-09T07:10:58.645Z,9.95
2023-04-09T07:12:01.088Z,9.77
2023-04-09T07:13:03.427Z,9.85
2023-04-09T07:14:05.951Z,9.97
2023-04-09T07:15:08.534Z,10.01
2023-04-09T07:16:11.085Z,10.25
2023-04-09T07:17:13.306Z,10.45
2023-04-09T07:18:15.780Z,10.62
2023-04-09T07:19:18.355Z,10.64
2023-04-09T07:20:20.778Z,10.72
2023-04-09T07:21:22.930Z,10.57
2023-04-09T07:22:27.259Z,10.38
2023-04-09T07:23:29.421Z,10.25
2023-04-09T07:24:32.583Z,10.00
2023-04-09T07:25:34.783Z,9.82
2023-04-09T07:26:37.296Z,9.72
2023-04-09T07:27:39.543Z,9.52
2023-04-09T07:28:42.276Z,9.45
2023-04-09T07:29:45.150Z,9.42
2023-04-09T07:30:47.376Z,9.39
2023-04-09T07:31:49.799Z,9.54
2023-04-09T07:32:52.207Z,9.66
2023-04-09T07:33:54.791Z,9.54
2023-04-09T07:34:57.718Z,9.40
2023-04-09T07:35:59.900Z,9.28
2023-04-09T07:37:02.165Z,9.30
2023-04-09T07:38:04.469Z,9.27
2023-04-09T07:39:06.882Z,9.31
2023-04-09T07:40:09.477Z,9.22
2023-04-09T07:41:11.850Z,9.22
2023-04-09T07:42:14.514Z,9.18
2023-04-09T07:43:16.885Z,9.32
2023-04-09T07:44:19.357Z,9.34
2023-04-09T07:45:21.699Z,9.29
2023-04-09T07:46:23.924Z,9.30
2023-04-09T07:47:26.982Z,9.21
2023-04-09T07:48:29.474Z,9.16
2023-04-09T07:49:31.852Z,9.09
2023-04-09T07:50:34.087Z,9.07
2023-04-09T07:51:36.411Z,8.95
2023-04-09T07:52:38.858Z,8.73
2023-04-09T07:53:41.377Z,8.68
2023-04-09T07:54:43.787Z,8.62
2023-04-09T07:55:46.621Z,8.65
2023-04-09T07:56:49.140Z,8.49
2023-04-09T07:57:51.724Z,8.61
2023-04-09T07:58:54.346Z,8.53
2023-04-09T07:59:56.862Z,8.51
2023-04-09T08:00:59.050Z,8.61
2023-04-09T08:02:01.541Z,8.68
2023-04-09T08:03:04.237Z,8.74
2023-04-09T08:04:06.987Z,8.82
2023-04-09T08:05:09.943Z,8.88
2023-04-09T08:06:12.158Z,8.66
2023-04-09T08:07:14.515Z,8.76
2023-04-09T08:08:16.755Z,8.89
2023-04-09T08:09:20.768Z,8.92
2023-04-09T08:10:23.388Z,8.95
2023-04-09T08:11:26.085Z,9.04
2023-04-09T08:12:28.569Z,9.14
2023-04-09T08:13:30.766Z,9.19
2023-04-09T08:14:33.219Z,9.09
2023-04-09T08:15:35.403Z,9.10
2023-04-09T08:16:37.766Z,9.17
2023-04-09T08:17:40.486Z,9.26
2023-04-09T08:18:42.707Z,9.36
2023-04-09T08:19:45.106Z,9.48
2023-04-09T08:20:47.354Z,9.54
2023-04-09T08:21:49.664Z,9.70
2023-04-09T08:22:52.107Z,9.65
2023-04-09T08:23:56.140Z,9.80
2023-04-09T08:25:01.486Z,9.93
2023-04-09T08:26:04.866Z,10.13
2023-04-09T08:27:07.315Z,10.13
2023-04-09T08:28:09.797Z,9.92
2023-04-09T08:29:13.543Z,9.73
2023-04-09T08:30:18.258Z,9.63
2023-04-09T08:31:21.038Z,9.57
2023-04-09T08:32:23.252Z,9.64
2023-04-09T08:33:26.464Z,9.70
2023-04-09T08:34:28.903Z,9.81
2023-04-09T08:35:31.711Z,9.91
2023-04-09T08:36:35.448Z,9.93
2023-04-09T08:37:37.717Z,10.00
2023-04-09T08:38:40.642Z,10.12
2023-04-09T08:39:43.080Z,10.20
2023-04-09T08:40:45.456Z,10.22
2023-04-09T08:41:48.351Z,10.27
2023-04-09T08:42:59.293Z,10.06
2023-04-09T08:44:02.098Z,10.03
2023-04-09T08:45:05.635Z,10.11
2023-04-09T08:46:10.664Z,10.19
2023-04-09T08:47:13.499Z,10.24
2023-04-09T08:48:17.065Z,10.16
2023-04-09T08:49:19.510Z,10.09
2023-04-09T08:50:22.431Z,9.95
2023-04-09T08:51:24.986Z,9.91
2023-04-09T08:52:32.962Z,9.85
2023-04-09T08:53:36.757Z,9.90
2023-04-09T08:54:39.028Z,10.10
2023-04-09T08:55:45.538Z,10.25
2023-04-09T08:56:47.986Z,10.37
2023-04-09T08:57:50.241Z,10.49
2023-04-09T08:58:53.395Z,10.59
2023-04-09T08:59:56.169Z,10.44
2023-04-09T09:00:58.493Z,10.33
2023-04-09T09:02:08.066Z,10.27
2023-04-09T09:03:13.235Z,10.32
2023-04-09T09:04:15.546Z,10.27
2023-04-09T09:05:35.259Z,10.16
2023-04-09T09:06:39.717Z,10.13
2023-04-09T09:07:54.664Z,10.25
2023-04-09T09:09:09.990Z,10.12
2023-04-09T09:10:12.404Z,10.05
2023-04-09T09:11:27.056Z,10.02
2023-04-09T09:12:35.559Z,10.15
2023-04-09T09:13:37.777Z,10.31
2023-04-09T09:14:40.195Z,10.51
2023-04-09T09:15:42.699Z,10.69
2023-04-09T09:17:04.190Z,10.63
2023-04-09T09:18:07.214Z,10.26
2023-04-09T09:19:27.791Z,10.32
2023-04-09T09:20:30.250Z,10.54
2023-04-09T09:21:33.364Z,10.60
2023-04-09T09:22:55.205Z,10.73
2023-04-09T09:23:58.242Z,10.83
2023-04-09T09:25:01.027Z,10.92
2023-04-09T09:26:13.704Z,10.76
2023-04-09T09:27:43.142Z,10.84
2023-04-09T09:28:47.035Z,10.94
2023-04-09T09:29:49.231Z,10.99
2023-04-09T09:30:51.858Z,10.91
2023-04-09T09:31:56.267Z,10.92
2023-04-09T09:33:10.141Z,11.10
2023-04-09T09:34:12.349Z,11.08
2023-04-09T09:35:14.597Z,11.19
2023-04-09T09:36:33.924Z,11.53
2023-04-09T09:37:36.097Z,11.57
2023-04-09T09:38:57.890Z,11.63
2023-04-09T09:40:01.017Z,11.60
2023-04-09T09:41:18.279Z,11.80
2023-04-09T09:42:20.760Z,11.72
2023-04-09T09:43:23.108Z,11.64
2023-04-09T09:44:33.300Z,11.59
2023-04-09T09:45:36.892Z,11.68
2023-04-09T09:46:42.584Z,11.92
2023-04-09T09:47:45.813Z,12.13
2023-04-09T09:48:49.713Z,12.18
2023-04-09T09:49:52.320Z,12.27
2023-04-09T09:50:54.983Z,12.37
2023-04-09T09:51:59.972Z,12.37
2023-04-09T09:53:05.396Z,12.46
2023-04-09T09:54:12.890Z,12.47
2023-04-09T09:55:17.972Z,12.50
2023-04-09T09:56:24.792Z,12.55
2023-04-09T09:57:30.549Z,12.26
2023-04-09T09:58:38.865Z,12.31
2023-04-09T09:59:47.670Z,12.28
2023-04-09T10:00:51.736Z,12.26
2023-04-09T10:02:01.504Z,12.31
2023-04-09T10:03:16.104Z,12.49
2023-04-09T10:04:20.097Z,12.49
2023-04-09T10:05:26.790Z,12.55
2023-04-09T10:06:31.082Z,12.64
2023-04-09T10:07:33.811Z,12.69
2023-04-09T10:08:38.437Z,12.73
2023-04-09T10:09:51.525Z,12.74
2023-04-09T10:10:53.998Z,12.98
2023-04-09T10:11:59.295Z,12.88
2023-04-09T10:13:01.878Z,12.92
2023-04-09T10:14:07.577Z,12.99
2023-04-09T10:15:10.282Z,12.91
2023-04-09T10:16:13.259Z,12.83
2023-04-09T10:17:16.198Z,12.92
2023-04-09T10:18:18.687Z,12.82
2023-04-09T10:19:22.223Z,12.97
2023-04-09T10:20:32.539Z,13.03
2023-04-09T10:22:08.622Z,13.12
2023-04-09T10:23:19.488Z,13.28
2023-04-09T10:24:21.920Z,13.16
2023-04-09T10:25:24.018Z,13.22
2023-04-09T10:26:31.054Z,13.23
2023-04-09T10:27:33.235Z,13.19
2023-04-09T10:28:37.523Z,13.16
2023-04-09T10:29:45.391Z,12.99
2023-04-09T10:30:48.107Z,12.77
2023-04-09T10:32:07.118Z,12.49
2023-04-09T10:33:26.512Z,12.63
2023-04-09T10:34:29.453Z,12.80
2023-04-09T10:35:31.633Z,13.06
2023-04-09T10:36:34.024Z,13.32
2023-04-09T10:37:36.495Z,13.58
2023-04-09T10:38:45.166Z,13.81
2023-04-09T10:39:48.854Z,13.81
2023-04-09T10:40:51.438Z,13.82
2023-04-09T10:41:55.138Z,13.78
2023-04-09T10:42:59.430Z,13.75
2023-04-09T10:44:06.676Z,13.54
2023-04-09T10:45:14.699Z,13.49
2023-04-09T10:46:26.888Z,13.43
2023-04-09T10:47:34.662Z,13.65
2023-04-09T10:48:36.929Z,13.81
2023-04-09T10:49:40.709Z,13.85
2023-04-09T10:50:44.709Z,13.74
2023-04-09T10:52:07.996Z,13.89
2023-04-09T10:53:25.792Z,13.90
2023-04-09T10:54:36.138Z,13.59
2023-04-09T10:55:41.892Z,13.82
2023-04-09T10:57:17.952Z,13.76
2023-04-09T10:58:20.564Z,13.59
2023-04-09T10:59:23.000Z,13.68
2023-04-09T11:00:25.461Z,13.84
2023-04-09T11:01:28.460Z,13.94
2023-04-09T11:02:39.827Z,13.95
2023-04-09T11:03:46.738Z,14.12
2023-04-09T11:05:07.361Z,14.23
2023-04-09T11:06:10.875Z,14.30
2023-04-09T11:07:17.751Z,14.38
2023-04-09T11:08:21.986Z,14.54
2023-04-09T11:09:24.199Z,14.41
2023-04-09T11:10:26.811Z,14.19
2023-04-09T11:11:29.515Z,14.03
2023-04-09T11:12:31.685Z,13.95
2023-04-09T11:13:34.497Z,13.94
2023-04-09T11:14:36.930Z,13.81
2023-04-09T11:15:39.485Z,13.76
2023-04-09T11:16:41.737Z,13.57
2023-04-09T11:17:44.811Z,13.59
2023-04-09T11:18:47.074Z,13.56
2023-04-09T11:19:50.031Z,13.68
2023-04-09T11:20:59.466Z,13.59
2023-04-09T11:22:06.534Z,13.72
2023-04-09T11:23:10.398Z,13.74
2023-04-09T11:24:13.017Z,13.58
2023-04-09T11:25:34.973Z,13.71
2023-04-09T11:26:37.660Z,13.85
2023-04-09T11:27:46.790Z,13.75
2023-04-09T11:28:49.202Z,13.61
2023-04-09T11:29:55.963Z,13.44
2023-04-09T11:30:58.222Z,13.40
2023-04-09T11:32:00.816Z,13.31
2023-04-09T11:33:03.227Z,12.98
2023-04-09T11:34:05.573Z,13.17
2023-04-09T11:35:15.629Z,13.11
2023-04-09T11:36:17.883Z,13.15
2023-04-09T11:37:20.536Z,13.40
2023-04-09T11:38:23.360Z,13.45
2023-04-09T11:39:26.363Z,13.35
2023-04-09T11:40:29.270Z,13.33
2023-04-09T11:41:36.194Z,13.15
2023-04-09T11:42:38.362Z,12.91
2023-04-09T11:43:40.683Z,13.25
2023-04-09T11:44:45.369Z,13.24
2023-04-09T11:45:48.565Z,13.29
2023-04-09T11:46:52.317Z,13.31
2023-04-09T11:47:55.436Z,13.23
2023-04-09T11:48:57.954Z,13.07
2023-04-09T11:50:00.200Z,13.08
2023-04-09T11:51:03.930Z,13.16
2023-04-09T11:52:06.517Z,13.14
2023-04-09T11:53:22.172Z,13.34
2023-04-09T11:54:24.362Z,13.42
2023-04-09T11:55:28.068Z,13.65
2023-04-09T11:56:31.253Z,13.85
2023-04-09T11:57:39.583Z,14.08
2023-04-09T11:58:46.996Z,14.29
2023-04-09T11:59:49.368Z,14.42
2023-04-09T12:01:00.569Z,14.33
2023-04-09T12:02:07.075Z,14.42
2023-04-09T12:03:10.884Z,14.37
2023-04-09T12:04:21.456Z,14.19
2023-04-09T12:05:26.285Z,14.09
2023-04-09T12:06:28.600Z,14.15
2023-04-09T12:07:34.386Z,14.12
2023-04-09T12:08:37.561Z,14.12
2023-04-09T12:09:49.201Z,13.66
2023-04-09T12:10:54.672Z,13.47
2023-04-09T12:11:59.403Z,13.73
2023-04-09T12:13:04.313Z,13.85
2023-04-09T12:14:06.641Z,13.95
2023-04-09T12:15:23.752Z,13.96
2023-04-09T12:16:26.014Z,13.70
2023-04-09T12:17:28.580Z,13.75
2023-04-09T12:18:31.196Z,13.84
2023-04-09T12:19:36.574Z,13.99
2023-04-09T12:20:41.418Z,13.94
2023-04-09T12:21:52.025Z,13.79
2023-04-09T12:22:54.649Z,14.05
2023-04-09T12:23:56.740Z,14.04
2023-04-09T12:24:58.903Z,13.94
2023-04-09T12:26:01.337Z,13.96
2023-04-09T12:27:03.575Z,13.86
2023-04-09T12:28:07.513Z,14.02
2023-04-09T12:29:09.682Z,14.08
2023-04-09T12:30:11.879Z,14.14
2023-04-09T12:31:14.257Z,14.39
2023-04-09T12:32:16.460Z,14.35
2023-04-09T12:33:19.219Z,14.40
2023-04-09T12:34:21.412Z,14.10
2023-04-09T12:35:23.992Z,14.27
2023-04-09T12:36:26.520Z,14.45
2023-04-09T12:37:28.911Z,14.52
2023-04-09T12:38:31.173Z,14.57
2023-04-09T12:39:34.405Z,14.47
2023-04-09T12:40:37.090Z,14.49
2023-04-09T12:41:39.336Z,14.53
2023-04-09T12:42:42.762Z,14.53
2023-04-09T12:43:44.938Z,14.57
2023-04-09T12:44:47.308Z,14.60
2023-04-09T12:45:49.808Z,14.36
2023-04-09T12:46:52.065Z,14.35
2023-04-09T12:47:54.596Z,14.39
2023-04-09T12:48:56.822Z,14.32
2023-04-09T12:49:59.146Z,14.36
2023-04-09T12:51:02.031Z,14.49
2023-04-09T12:52:04.431Z,14.57
2023-04-09T12:53:06.984Z,14.75
2023-04-09T12:54:09.256Z,14.91
2023-04-09T12:55:12.676Z,14.95
2023-04-09T12:56:15.104Z,14.91
2023-04-09T12:57:17.667Z,14.71
2023-04-09T12:58:20.097Z,14.87
2023-04-09T12:59:22.289Z,14.95
2023-04-09T13:00:24.733Z,14.97
2023-04-09T13:01:27.393Z,14.78
2023-04-09T13:02:30.444Z,14.73
2023-04-09T13:03:34.527Z,14.86
2023-04-09T13:04:37.209Z,14.88
2023-04-09T13:05:39.699Z,14.99
2023-04-09T13:06:42.174Z,15.01
2023-04-09T13:07:44.474Z,15.17
2023-04-09T13:08:46.901Z,15.07
2023-04-09T13:09:52.610Z,15.23
2023-04-09T13:10:54.875Z,15.44
2023-04-09T13:11:57.297Z,15.59
2023-04-09T13:12:59.895Z,15.69
2023-04-09T13:14:02.118Z,15.76
2023-04-09T13:15:04.738Z,15.64
2023-04-09T13:16:07.533Z,15.75
2023-04-09T13:17:09.995Z,15.90
2023-04-09T13:18:15.099Z,15.91
2023-04-09T13:19:17.308Z,15.75
2023-04-09T13:20:19.775Z,15.77
2023-04-09T13:21:22.178Z,15.62
2023-04-09T13:22:24.503Z,15.72
2023-04-09T13:23:26.897Z,15.77
2023-04-09T13:24:29.320Z,15.87
2023-04-09T13:25:31.614Z,15.76
2023-04-09T13:26:34.179Z,15.76
2023-04-09T13:27:36.386Z,15.57
2023-04-09T13:28:38.593Z,15.48
2023-04-09T13:29:41.187Z,15.50
2023-04-09T13:30:43.431Z,15.68
2023-04-09T13:31:45.853Z,15.76
2023-04-09T13:32:48.134Z,15.85
2023-04-09T13:33:50.378Z,15.92
2023-04-09T13:34:54.619Z,15.47
2023-04-09T13:35:57.602Z,15.16
2023-04-09T13:36:59.887Z,15.05
2023-04-09T13:38:02.173Z,15.23
2023-04-09T13:39:04.588Z,15.25
2023-04-09T13:40:09.222Z,15.21
2023-04-09T13:41:11.629Z,15.28
2023-04-09T13:42:14.522Z,15.24
2023-04-09T13:43:17.073Z,15.38
2023-04-09T13:44:19.518Z,15.38
2023-04-09T13:45:23.900Z,15.38
2023-04-09T13:46:26.332Z,15.39
2023-04-09T13:47:28.604Z,15.38
2023-04-09T13:48:30.936Z,15.28
2023-04-09T13:49:33.308Z,15.23
2023-04-09T13:50:35.874Z,15.23
2023-04-09T13:51:38.226Z,15.22
2023-04-09T13:52:40.538Z,15.12
2023-04-09T13:53:43.333Z,15.16
2023-04-09T13:54:46.264Z,15.14
2023-04-09T13:55:48.919Z,15.16
2023-04-09T13:56:51.584Z,15.18
2023-04-09T13:57:53.819Z,15.21
2023-04-09T13:58:56.308Z,15.33
2023-04-09T14:00:01.839Z,15.38
2023-04-09T14:01:07.991Z,15.39
2023-04-09T14:02:10.768Z,15.47
2023-04-09T14:03:14.376Z,15.30
2023-04-09T14:04:17.605Z,15.13
2023-04-09T14:05:19.982Z,14.82
2023-04-09T14:06:22.637Z,15.02
2023-04-09T14:07:24.867Z,15.09
2023-04-09T14:08:27.280Z,15.32
2023-04-09T14:09:30.264Z,15.48
2023-04-09T14:10:32.669Z,15.48
2023-04-09T14:11:35.390Z,15.51